»·PEaware :: N132KT KELY-KMLF

N132KT :: KELY-KMLF

FLIGHT INFORMATION

Flight Status: Arrived
Operator: Privately registered:
United States
More flights under this callsign
Pilot: Keith S. (1)
Aircraft: MITSUBISHI MU-2 MARQUISE
(MU2)
More flights by this aircraft type
Origin: KELY Ely
United States
Destination: KMLF Milford Mun
United States
More flights between these airports :: More routes between these airports
Route:
File this flight plan on PilotEdge
Remarks:
Altitude:
(Current/Filed)
17,500ft
Speed:
(Current/Filed)
320kts
Departed: 07-Dec-17 08:00 AM
Arrived: 07-Dec-17 09:08 AM
Distance/Time
Traveled:
101nm/1:07
Distance/Time
To Go:
Arrived

Flight Plot

Page will automatically refresh every two minutes.

Flight plan parsing failed; only flown route is shown


Map Options




Map Legend


Flown Route
Filed Route
Departure Airport
Arrival Airport
Navaid (VOR, NDB)
Fix

Horizontal Profiles

Position Reports

Time Latitude Longitude Heading Altitude Ground
Speed
07-Dec-17 08:02 39.293381 -114.839202 13 6256ft 0kts
07-Dec-17 08:03 39.293381 -114.839201 15 6256ft 0kts
07-Dec-17 08:04 39.293381 -114.839201 14 6256ft 0kts
07-Dec-17 08:05 39.307228 -114.834726 19 6478ft 146kts
07-Dec-17 08:06 39.314385 -114.799506 118 8732ft 172kts
07-Dec-17 08:07 39.287604 -114.743859 115 10966ft 194kts
07-Dec-17 08:08 39.257320 -114.682597 114 13257ft 211kts
07-Dec-17 08:09 39.222151 -114.609771 115 13444ft 264kts
07-Dec-17 08:10 39.181369 -114.525656 115 13439ft 285kts
07-Dec-17 08:11 39.138730 -114.437739 116 13438ft 292kts
07-Dec-17 08:12 39.095481 -114.349151 116 13438ft 294kts
07-Dec-17 08:13 39.051800 -114.260061 116 13439ft 295kts
07-Dec-17 08:14 39.007793 -114.170614 116 13440ft 295kts
07-Dec-17 08:15 38.963971 -114.081723 115 13440ft 294kts
07-Dec-17 08:16 38.920140 -113.993051 114 13441ft 293kts
07-Dec-17 08:17 38.878214 -113.908496 113 13434ft 289kts
07-Dec-17 08:18 38.835174 -113.822040 113 13437ft 287kts
07-Dec-17 08:19 38.792288 -113.736109 113 13440ft 286kts
07-Dec-17 08:20 38.749394 -113.650331 113 13440ft 286kts
07-Dec-17 08:21 38.706314 -113.564405 113 13440ft 286kts
07-Dec-17 08:22 38.663015 -113.478890 113 13441ft 286kts
07-Dec-17 08:23 38.619887 -113.393325 113 13441ft 286kts
07-Dec-17 08:24 38.576920 -113.308294 114 13445ft 287kts
07-Dec-17 08:25 38.533575 -113.222730 114 13445ft 287kts
07-Dec-17 08:26 38.490066 -113.137081 114 13445ft 287kts
07-Dec-17 08:27 38.446504 -113.051555 114 13445ft 287kts
07-Dec-17 08:28 38.446097 -113.050755 114 13445ft 287kts
07-Dec-17 08:29 38.446097 -113.050755 114 13445ft 287kts
07-Dec-17 08:30 38.446097 -113.050755 114 13445ft 287kts
07-Dec-17 08:31 38.446097 -113.050755 114 13445ft 287kts
07-Dec-17 08:32 38.446097 -113.050755 114 13445ft 287kts
07-Dec-17 08:33 38.446097 -113.050755 114 13445ft 287kts
07-Dec-17 08:34 38.446097 -113.050755 114 13445ft 287kts
07-Dec-17 08:35 38.446097 -113.050755 114 13445ft 287kts
07-Dec-17 08:36 38.446097 -113.050755 114 13445ft 287kts
07-Dec-17 08:37 38.446097 -113.050755 114 13445ft 287kts
07-Dec-17 08:38 38.446097 -113.050755 114 13445ft 287kts
07-Dec-17 08:39 38.446097 -113.050755 114 13445ft 287kts
07-Dec-17 08:40 38.446097 -113.050755 114 13445ft 287kts
07-Dec-17 08:41 38.446097 -113.050755 114 13445ft 287kts
07-Dec-17 08:42 38.446097 -113.050755 114 13445ft 287kts
07-Dec-17 08:43 38.446097 -113.050755 114 13445ft 287kts
07-Dec-17 08:44 38.446097 -113.050755 114 13445ft 287kts
07-Dec-17 08:45 38.446097 -113.050755 114 13445ft 287kts
07-Dec-17 08:46 38.446097 -113.050755 114 13445ft 287kts
07-Dec-17 08:47 38.446097 -113.050755 114 13445ft 287kts
07-Dec-17 08:48 38.446097 -113.050755 114 13445ft 287kts
07-Dec-17 08:49 38.446097 -113.050755 114 13445ft 287kts
07-Dec-17 08:50 38.446097 -113.050755 114 13445ft 287kts
07-Dec-17 08:51 38.446097 -113.050755 114 13445ft 287kts
07-Dec-17 08:52 38.446097 -113.050755 114 13445ft 287kts
07-Dec-17 08:53 38.446097 -113.050755 114 13445ft 287kts
07-Dec-17 08:54 38.446097 -113.050755 114 13445ft 287kts
07-Dec-17 08:55 38.446097 -113.050755 114 13445ft 287kts
07-Dec-17 08:56 38.446097 -113.050755 114 13445ft 287kts
07-Dec-17 08:57 38.446097 -113.050755 114 13445ft 287kts
07-Dec-17 08:58 38.446097 -113.050755 114 13445ft 287kts
07-Dec-17 08:59 38.446097 -113.050755 114 13445ft 287kts
07-Dec-17 09:00 38.446097 -113.050755 114 13445ft 287kts
07-Dec-17 09:01 38.446097 -113.050755 114 13445ft 287kts
07-Dec-17 09:02 38.446097 -113.050755 114 13445ft 287kts
07-Dec-17 09:03 38.446097 -113.050755 114 13445ft 287kts
07-Dec-17 09:04 38.446097 -113.050755 114 13445ft 287kts
07-Dec-17 09:05 38.446097 -113.050755 114 13445ft 287kts
07-Dec-17 09:06 38.446097 -113.050755 114 13445ft 287kts
07-Dec-17 09:07 38.446097 -113.050755 114 13445ft 287kts
07-Dec-17 09:08 38.446097 -113.050755 114 13445ft 287kts
07-Dec-17 09:09 38.446097 -113.050755 114 13445ft 287kts
07-Dec-17 09:10 38.441569 -113.014148 142 6589ft 283kts
07-Dec-17 09:11 38.434486 -113.006187 267 6080ft 162kts
07-Dec-17 09:12 38.424478 -113.013315 181 5038ft 84kts
07-Dec-17 09:13 38.419563 -113.011788 121 5042ft 0kts
07-Dec-17 09:14 38.419563 -113.011788 121 5042ft 0kts
07-Dec-17 09:15 38.419563 -113.011788 121 5042ft 0kts
07-Dec-17 09:16 38.419563 -113.011788 121 5042ft 0kts
07-Dec-17 09:17 38.419080 -113.011496 32 5042ft 0kts

Navigation Log

Ident Type
Flight plan parsing failed, navigation log unavailable